Time;durP1;ratioP1;P1;durP2;ratioP2;P2;SDS_P1;SDS_P2;PMS_P1;PMS_P2;Temp;Humidity;BMP_temperature;BMP_pressure;BME280_temperature;BME280_humidity;BME280_pressure;Samples;Min_cycle;Max_cycle;Signal;HPM_P1;HPM_P2
2022/07/23 00:00:29;;;;;;;6.20;3.37;;;20.70;65.40;;;;;;5084352;28;20240;-91
2022/07/23 00:02:56;;;;;;;10.03;4.53;;;20.60;65.70;;;;;;5071352;28;20203;-92
2022/07/23 00:05:24;;;;;;;8.03;3.77;;;20.60;65.50;;;;;;5071559;28;20747;-93
2022/07/23 00:07:51;;;;;;;8.43;4.23;;;20.60;65.60;;;;;;5076865;28;20336;-92
2022/07/23 00:10:18;;;;;;;9.23;4.30;;;20.60;65.60;;;;;;5090485;28;20209;-92
2022/07/23 00:12:48;;;;;;;8.27;4.00;;;20.60;65.60;;;;;;5085221;28;20703;-92
2022/07/23 00:15:20;;;;;;;10.37;4.07;;;20.60;65.60;;;;;;5086091;28;20205;-92
2022/07/23 00:17:49;;;;;;;8.30;3.70;;;20.50;65.30;;;;;;5088095;28;20378;-93
2022/07/23 00:20:16;;;;;;;10.43;3.87;;;20.50;65.60;;;;;;5090222;28;20195;-92
2022/07/23 00:22:50;;;;;;;8.07;3.63;;;20.50;65.70;;;;;;5102452;28;20631;-92
2022/07/23 00:25:17;;;;;;;11.33;4.83;;;20.50;66.30;;;;;;5083372;28;20251;-92
2022/07/23 00:27:45;;;;;;;12.80;5.27;;;20.50;66.10;;;;;;5069897;28;20209;-93
2022/07/23 00:30:13;;;;;;;8.80;3.87;;;20.40;66.20;;;;;;5070187;28;20249;-92
2022/07/23 00:32:50;;;;;;;11.00;4.63;;;20.40;66.20;;;;;;5069953;28;20200;-93
2022/07/23 00:35:21;;;;;;;4.53;2.70;;;20.30;66.10;;;;;;5076992;28;20301;-93
2022/07/23 00:37:48;;;;;;;8.53;3.93;;;20.30;66.10;;;;;;5091629;28;20261;-92
2022/07/23 00:40:16;;;;;;;14.47;5.70;;;20.30;66.10;;;;;;5089265;28;20196;-93
2022/07/23 00:42:45;;;;;;;5.97;3.70;;;20.30;66.20;;;;;;5090967;28;20625;-93
2022/07/23 00:45:12;;;;;;;7.43;3.80;;;20.20;66.40;;;;;;5089059;28;20294;-92
2022/07/23 00:47:41;;;;;;;10.73;4.20;;;20.30;66.40;;;;;;5080080;28;20290;-92
2022/07/23 00:50:11;;;;;;;11.13;4.63;;;20.20;66.00;;;;;;5081012;28;20272;-93
2022/07/23 00:52:39;;;;;;;8.47;4.33;;;20.20;66.30;;;;;;5090215;28;20280;-92
2022/07/23 00:55:09;;;;;;;9.27;4.43;;;20.10;66.40;;;;;;5089655;28;20210;-93
2022/07/23 00:57:37;;;;;;;7.93;3.90;;;20.20;66.60;;;;;;5088953;28;20730;-93
2022/07/23 01:00:10;;;;;;;9.63;4.40;;;20.20;66.50;;;;;;5090140;28;20763;-92
2022/07/23 01:02:38;;;;;;;11.87;5.33;;;20.10;66.50;;;;;;5080788;28;20196;-92
2022/07/23 01:05:10;;;;;;;11.43;4.80;;;20.00;66.40;;;;;;5069317;28;20293;-92
2022/07/23 01:07:39;;;;;;;10.07;4.53;;;20.10;66.90;;;;;;5074920;28;20195;-91
2022/07/23 01:12:48;;;;;;;9.43;4.23;;;20.00;66.70;;;;;;5070517;28;20208;-91
2022/07/23 01:15:15;;;;;;;10.73;4.50;;;20.00;66.80;;;;;;5076401;28;20312;-92
2022/07/23 01:17:42;;;;;;;12.67;5.63;;;20.00;66.90;;;;;;5089527;28;20322;-93
2022/07/23 01:20:14;;;;;;;9.00;4.47;;;19.90;66.90;;;;;;5090052;28;20604;-92
2022/07/23 01:22:44;;;;;;;7.33;4.03;;;19.90;67.50;;;;;;5086652;28;20260;-92
2022/07/23 01:25:12;;;;;;;10.93;4.47;;;19.80;67.20;;;;;;5078077;28;20225;-91
2022/07/23 01:27:39;;;;;;;8.87;4.43;;;19.80;67.20;;;;;;5091167;28;20293;-91
2022/07/23 01:30:07;;;;;;;8.80;4.37;;;19.70;67.00;;;;;;5077960;28;20302;-93
2022/07/23 01:32:36;;;;;;;7.30;3.80;;;19.70;67.20;;;;;;5070843;28;20278;-92
2022/07/23 01:35:03;;;;;;;8.73;4.67;;;19.80;67.50;;;;;;5077427;28;20307;-90
2022/07/23 01:37:30;;;;;;;9.33;5.07;;;19.70;67.30;;;;;;5070142;28;20220;-93
2022/07/23 01:40:02;;;;;;;7.77;4.30;;;19.70;67.40;;;;;;5080133;28;20211;-92
2022/07/23 01:42:31;;;;;;;8.40;4.57;;;19.70;67.80;;;;;;5091444;28;20225;-91
2022/07/23 01:45:04;;;;;;;7.63;4.63;;;19.60;67.70;;;;;;5085220;28;20199;-93
2022/07/23 01:47:33;;;;;;;12.20;5.77;;;19.60;68.10;;;;;;5072570;28;20669;-91
2022/07/23 01:50:04;;;;;;;9.97;5.23;;;19.60;68.10;;;;;;5071126;28;20699;-92
2022/07/23 01:52:33;;;;;;;12.67;6.47;;;19.60;68.20;;;;;;5084245;28;20241;-92
2022/07/23 01:55:04;;;;;;;10.73;4.93;;;19.60;68.20;;;;;;5088171;28;20297;-91
2022/07/23 01:57:31;;;;;;;11.07;5.47;;;19.50;68.20;;;;;;5082574;28;20227;-92
2022/07/23 01:59:58;;;;;;;7.40;4.93;;;19.50;68.10;;;;;;5070996;28;20664;-92
2022/07/23 02:02:25;;;;;;;8.43;4.57;;;19.50;68.20;;;;;;5075064;28;20266;-93
2022/07/23 02:04:52;;;;;;;11.10;5.50;;;19.50;68.20;;;;;;5091217;28;20226;-92
2022/07/23 02:07:20;;;;;;;8.97;4.90;;;19.50;68.20;;;;;;5088590;28;20658;-90
2022/07/23 02:09:47;;;;;;;6.43;4.33;;;19.40;68.30;;;;;;5091188;28;20206;-92
2022/07/23 02:12:18;;;;;;;11.33;5.77;;;19.40;68.30;;;;;;5086495;28;20890;-92
2022/07/23 02:14:46;;;;;;;11.43;5.30;;;19.40;68.40;;;;;;5082876;28;20199;-93
2022/07/23 02:17:13;;;;;;;11.30;5.80;;;19.40;68.40;;;;;;5086410;28;20241;-93
2022/07/23 02:19:42;;;;;;;8.70;4.97;;;19.40;68.40;;;;;;5070804;28;20198;-93
2022/07/23 02:22:09;;;;;;;10.80;5.97;;;19.30;68.60;;;;;;5083426;28;20206;-92
2022/07/23 02:24:39;;;;;;;7.97;4.60;;;19.30;68.60;;;;;;5071387;28;20214;-93
2022/07/23 02:27:06;;;;;;;11.10;5.67;;;19.30;68.50;;;;;;5070207;28;20240;-92
2022/07/23 02:29:35;;;;;;;10.20;4.97;;;19.20;68.40;;;;;;5071226;28;20307;-92
2022/07/23 02:32:03;;;;;;;8.80;4.90;;;19.20;68.70;;;;;;5075789;28;20208;-93
2022/07/23 02:34:30;;;;;;;7.47;4.83;;;19.20;68.90;;;;;;5071499;28;20215;-95
2022/07/23 02:36:58;;;;;;;6.80;4.27;;;19.10;68.80;;;;;;5071196;28;20227;-92
2022/07/23 02:39:29;;;;;;;7.20;4.20;;;19.10;68.90;;;;;;5084317;28;20225;-93
2022/07/23 02:41:56;;;;;;;8.23;5.00;;;19.10;69.30;;;;;;5089302;28;20220;-91
2022/07/23 02:44:23;;;;;;;9.33;5.10;;;19.10;69.20;;;;;;5088388;28;20997;-93
2022/07/23 02:46:55;;;;;;;12.83;5.67;;;19.10;69.30;;;;;;5071921;28;20202;-94
2022/07/23 02:49:22;;;;;;;12.60;5.20;;;19.10;69.70;;;;;;5081211;28;20210;-94
2022/07/23 02:51:50;;;;;;;8.40;4.57;;;19.00;69.40;;;;;;5077814;28;20203;-93
2022/07/23 02:54:19;;;;;;;8.53;4.90;;;19.10;69.70;;;;;;5082107;28;20250;-93
2022/07/23 02:56:51;;;;;;;6.43;4.83;;;19.00;70.00;;;;;;5099130;28;20604;-94
2022/07/23 02:59:24;;;;;;;8.07;4.20;;;19.10;70.40;;;;;;5096750;28;20250;-94
2022/07/23 03:01:55;;;;;;;10.33;5.40;;;19.00;70.30;;;;;;5098227;28;20200;-93
2022/07/23 03:04:24;;;;;;;8.40;5.40;;;19.00;70.30;;;;;;5085020;28;20544;-93
2022/07/23 03:06:59;;;;;;;10.50;5.43;;;19.00;70.30;;;;;;5073862;28;20201;-93
2022/07/23 03:09:27;;;;;;;7.23;4.30;;;19.00;70.70;;;;;;5077390;28;20191;-93
2022/07/23 03:11:54;;;;;;;8.90;5.67;;;19.00;70.40;;;;;;5088285;28;20217;-93
2022/07/23 03:14:21;;;;;;;8.60;5.50;;;19.00;70.50;;;;;;5090225;28;20346;-93
2022/07/23 03:16:50;;;;;;;10.10;6.00;;;19.00;70.30;;;;;;5095319;28;20226;-94
2022/07/23 03:19:18;;;;;;;12.30;7.07;;;19.00;70.30;;;;;;5090828;28;20301;-92
2022/07/23 03:21:46;;;;;;;10.73;6.87;;;19.00;70.00;;;;;;5095055;28;20308;-93
2022/07/23 03:24:13;;;;;;;11.37;6.87;;;19.00;70.30;;;;;;5075623;28;20221;-93
2022/07/23 03:26:42;;;;;;;9.87;5.97;;;19.00;70.60;;;;;;5074565;28;20209;-91
2022/07/23 03:29:09;;;;;;;7.43;5.70;;;19.10;70.90;;;;;;5074394;28;20193;-93
2022/07/23 03:31:38;;;;;;;9.20;5.60;;;19.10;70.90;;;;;;5084969;28;20294;-93
2022/07/23 03:34:06;;;;;;;8.80;6.07;;;19.10;71.40;;;;;;5085270;28;20206;-93
2022/07/23 03:36:34;;;;;;;11.97;7.10;;;19.00;70.70;;;;;;5075976;28;20228;-93
2022/07/23 03:39:01;;;;;;;11.50;6.73;;;19.00;70.80;;;;;;5082495;28;20260;-92
2022/07/23 03:41:30;;;;;;;10.53;6.70;;;19.00;70.60;;;;;;5083188;28;20771;-93
2022/07/23 03:43:59;;;;;;;11.03;6.47;;;19.00;70.70;;;;;;5079758;28;20643;-94
2022/07/23 03:46:32;;;;;;;12.57;6.83;;;19.10;71.30;;;;;;5073697;28;20648;-93
2022/07/23 03:49:01;;;;;;;9.13;5.93;;;19.10;71.70;;;;;;5084009;28;20204;-92
2022/07/23 03:51:28;;;;;;;6.77;5.23;;;19.10;71.60;;;;;;5091068;28;20213;-91
2022/07/23 03:53:58;;;;;;;13.50;6.93;;;19.00;71.20;;;;;;5085299;28;20221;-93
2022/07/23 03:56:25;;;;;;;12.83;7.37;;;19.00;71.30;;;;;;5074052;28;20233;-93
2022/07/23 03:58:53;;;;;;;10.97;6.83;;;19.00;71.00;;;;;;5072604;28;20271;-92
2022/07/23 04:01:22;;;;;;;11.00;6.50;;;19.10;71.20;;;;;;5076039;28;20276;-92
2022/07/23 04:03:49;;;;;;;10.73;6.13;;;19.00;71.70;;;;;;5073526;28;20237;-90
2022/07/23 04:06:16;;;;;;;10.33;6.70;;;19.10;71.80;;;;;;5074524;28;20214;-92
2022/07/23 04:08:45;;;;;;;13.03;7.47;;;19.00;71.80;;;;;;5072756;28;20202;-92
2022/07/23 04:11:14;;;;;;;11.23;6.73;;;19.00;72.00;;;;;;5079344;28;20571;-91
2022/07/23 04:13:41;;;;;;;12.27;7.07;;;19.00;72.20;;;;;;5092564;28;20310;-92
2022/07/23 04:16:08;;;;;;;10.57;7.03;;;19.00;71.80;;;;;;5077191;28;20275;-92
2022/07/23 04:18:35;;;;;;;9.83;6.73;;;19.00;71.80;;;;;;5072788;28;20230;-93
2022/07/23 04:21:08;;;;;;;13.00;7.67;;;19.00;71.90;;;;;;5073346;28;21682;-93
2022/07/23 04:23:35;;;;;;;13.97;7.67;;;19.00;72.20;;;;;;5083547;28;20200;-92
2022/07/23 04:26:02;;;;;;;13.27;7.07;;;19.00;72.20;;;;;;5091984;28;20207;-92
2022/07/23 04:28:32;;;;;;;12.57;7.13;;;19.00;72.40;;;;;;5090366;28;20205;-92
2022/07/23 04:31:00;;;;;;;10.43;6.70;;;19.00;72.90;;;;;;5092670;28;20303;-92
2022/07/23 04:33:28;;;;;;;10.13;6.97;;;19.00;72.80;;;;;;5077401;28;20722;-92
2022/07/23 04:35:57;;;;;;;10.93;6.90;;;19.00;73.10;;;;;;5072739;28;20565;-92
2022/07/23 04:38:24;;;;;;;9.23;5.77;;;19.00;73.10;;;;;;5071939;28;20230;-92
2022/07/23 04:40:51;;;;;;;14.40;7.60;;;19.00;72.80;;;;;;5078749;28;20319;-92
2022/07/23 04:43:18;;;;;;;15.87;8.90;;;19.00;72.50;;;;;;5090318;28;20210;-93
2022/07/23 04:45:47;;;;;;;13.97;7.63;;;19.00;72.50;;;;;;5076815;28;20293;-93
2022/07/23 04:48:24;;;;;;;12.83;7.57;;;19.00;73.10;;;;;;5082833;28;20236;-93
2022/07/23 04:50:51;;;;;;;14.83;8.03;;;19.00;74.00;;;;;;5078724;28;20317;-93
2022/07/23 04:53:19;;;;;;;15.27;8.63;;;19.00;73.50;;;;;;5070170;28;20394;-92
2022/07/23 04:55:47;;;;;;;12.17;7.63;;;19.00;73.90;;;;;;5081238;28;20284;-92
2022/07/23 04:58:15;;;;;;;17.17;8.80;;;19.00;74.40;;;;;;5089344;28;20221;-92
2022/07/23 05:00:42;;;;;;;19.37;9.70;;;19.00;74.60;;;;;;5075784;28;20590;-90
2022/07/23 05:03:11;;;;;;;10.57;6.97;;;19.00;74.70;;;;;;5069773;28;20291;-91
2022/07/23 05:05:38;;;;;;;15.77;8.13;;;19.00;75.40;;;;;;5081727;28;20215;-92
2022/07/23 05:08:06;;;;;;;15.73;9.33;;;19.00;75.40;;;;;;5089550;28;20269;-92
2022/07/23 05:10:34;;;;;;;13.10;8.50;;;19.00;75.90;;;;;;5084388;28;20210;-91
2022/07/23 05:13:01;;;;;;;19.07;9.30;;;19.00;75.90;;;;;;5068247;28;20542;-91
2022/07/23 05:15:28;;;;;;;10.93;7.33;;;19.10;75.90;;;;;;5070400;28;20966;-91
2022/07/23 05:17:55;;;;;;;17.57;8.83;;;19.10;75.70;;;;;;5074669;28;20279;-91
2022/07/23 05:20:26;;;;;;;16.70;9.17;;;19.10;75.80;;;;;;5073120;28;20208;-91
2022/07/23 05:22:55;;;;;;;10.97;7.67;;;19.10;76.40;;;;;;5078966;28;20300;-93
2022/07/23 05:25:22;;;;;;;15.73;8.70;;;19.10;76.40;;;;;;5085508;28;20210;-92
2022/07/23 05:27:50;;;;;;;15.23;9.17;;;19.20;76.10;;;;;;5076250;28;20245;-92
2022/07/23 05:30:19;;;;;;;14.23;8.53;;;19.20;76.80;;;;;;5070433;28;20260;-93
2022/07/23 05:32:47;;;;;;;15.57;9.10;;;19.20;76.90;;;;;;5075852;28;20294;-92
2022/07/23 05:35:20;;;;;;;16.10;9.57;;;19.20;76.90;;;;;;5069813;28;20619;-92
2022/07/23 05:37:49;;;;;;;15.33;9.77;;;19.30;77.70;;;;;;5072155;28;20206;-92
2022/07/23 05:40:16;;;;;;;17.87;9.40;;;19.30;77.40;;;;;;5084523;28;20238;-91
2022/07/23 05:42:43;;;;;;;11.53;7.63;;;19.30;77.10;;;;;;5072193;28;20827;-92
2022/07/23 05:45:11;;;;;;;10.13;7.80;;;19.30;77.20;;;;;;5070041;28;20202;-92
2022/07/23 05:47:43;;;;;;;13.60;8.77;;;19.30;77.80;;;;;;5077954;28;20254;-91
2022/07/23 05:50:12;;;;;;;12.97;9.03;;;19.40;78.60;;;;;;5088203;28;20210;-92
2022/07/23 05:52:40;;;;;;;12.73;8.50;;;19.40;78.30;;;;;;5082927;28;20239;-92
2022/07/23 05:55:12;;;;;;;12.60;8.17;;;19.40;78.10;;;;;;5091079;28;20226;-92
2022/07/23 05:57:45;;;;;;;14.00;8.67;;;19.50;78.80;;;;;;5083984;28;20206;-94
2022/07/23 06:00:13;;;;;;;11.37;7.90;;;19.50;78.40;;;;;;5079062;28;20230;-93
2022/07/23 06:02:46;;;;;;;15.83;8.97;;;19.60;77.80;;;;;;5078835;28;20337;-91
2022/07/23 06:05:15;;;;;;;11.93;7.93;;;19.60;78.70;;;;;;5069045;28;20211;-91
2022/07/23 06:07:42;;;;;;;13.60;8.07;;;19.60;77.80;;;;;;5077872;28;20216;-91
2022/07/23 06:10:11;;;;;;;11.17;7.73;;;19.70;77.70;;;;;;5089798;28;20216;-92
2022/07/23 06:12:39;;;;;;;12.03;8.40;;;19.70;78.00;;;;;;5084851;28;20659;-92
2022/07/23 06:15:07;;;;;;;15.23;9.47;;;19.70;77.90;;;;;;5071571;28;20386;-90
2022/07/23 06:17:35;;;;;;;12.33;8.17;;;19.80;77.80;;;;;;5084426;28;20271;-92
2022/07/23 06:20:08;;;;;;;20.00;10.57;;;19.80;77.60;;;;;;5075680;28;20286;-91
2022/07/23 06:22:47;;;;;;;12.07;8.43;;;19.90;78.20;;;;;;5089751;28;20585;-93
2022/07/23 06:25:16;;;;;;;16.07;9.57;;;19.80;77.80;;;;;;5084475;28;20197;-91
2022/07/23 06:27:43;;;;;;;13.60;9.30;;;19.90;77.70;;;;;;5068773;28;20210;-91
2022/07/23 06:30:12;;;;;;;14.60;8.97;;;19.90;77.90;;;;;;5075954;28;20283;-93
2022/07/23 06:32:39;;;;;;;17.50;9.03;;;19.90;77.70;;;;;;5073429;28;20253;-93
2022/07/23 06:35:07;;;;;;;13.83;8.63;;;20.00;77.70;;;;;;5084602;28;20217;-92
2022/07/23 06:37:35;;;;;;;13.97;8.33;;;20.00;78.20;;;;;;5078232;28;20208;-91
2022/07/23 06:40:02;;;;;;;13.10;9.10;;;20.00;77.90;;;;;;5068050;28;20231;-91
2022/07/23 06:42:36;;;;;;;20.30;11.03;;;20.10;78.40;;;;;;5073082;28;20260;-91
2022/07/23 06:45:04;;;;;;;16.13;9.07;;;20.10;78.60;;;;;;5086929;28;20325;-92
2022/07/23 06:47:31;;;;;;;21.60;9.90;;;20.20;79.00;;;;;;5086636;28;20229;-92
2022/07/23 06:49:58;;;;;;;17.50;9.13;;;20.30;78.60;;;;;;5073410;28;20227;-94
2022/07/23 06:52:26;;;;;;;18.10;10.77;;;20.30;78.40;;;;;;5084956;28;20666;-91
2022/07/23 06:54:53;;;;;;;15.37;10.43;;;20.40;78.70;;;;;;5084752;28;20861;-91
2022/07/23 06:57:21;;;;;;;18.93;10.57;;;20.40;78.60;;;;;;5073856;28;20269;-92
2022/07/23 06:59:50;;;;;;;18.77;10.00;;;20.50;79.20;;;;;;5074884;28;20280;-92
2022/07/23 07:02:17;;;;;;;14.30;9.37;;;20.50;79.70;;;;;;5091090;28;20207;-92
2022/07/23 07:04:45;;;;;;;17.93;11.00;;;20.60;79.30;;;;;;5089042;28;20614;-92
2022/07/23 07:07:13;;;;;;;23.40;11.83;;;20.70;79.20;;;;;;5085081;28;20207;-91
2022/07/23 07:09:41;;;;;;;12.17;8.20;;;20.80;79.10;;;;;;5091042;28;20695;-91
2022/07/23 07:12:08;;;;;;;17.20;10.13;;;20.90;78.60;;;;;;5082726;28;20211;-91
2022/07/23 07:14:37;;;;;;;17.93;9.37;;;21.00;78.10;;;;;;5078429;28;20668;-91
2022/07/23 07:17:05;;;;;;;17.27;10.60;;;21.00;78.00;;;;;;5079818;28;21049;-91
2022/07/23 07:19:35;;;;;;;15.10;8.93;;;21.10;77.30;;;;;;5089483;28;20226;-91
2022/07/23 07:22:03;;;;;;;14.30;8.83;;;21.20;77.00;;;;;;5080241;28;20271;-91
2022/07/23 07:24:34;;;;;;;15.37;9.20;;;21.20;77.10;;;;;;5091329;28;20211;-91
2022/07/23 07:27:01;;;;;;;18.50;10.37;;;21.30;77.00;;;;;;5088865;28;20203;-92
2022/07/23 07:29:28;;;;;;;14.33;9.07;;;21.40;76.70;;;;;;5091414;28;20628;-91
2022/07/23 07:32:09;;;;;;;15.30;8.57;;;21.40;76.40;;;;;;5090926;28;20199;-95
2022/07/23 07:34:36;;;;;;;15.63;8.37;;;21.50;76.20;;;;;;5090318;28;20289;-92
2022/07/23 07:37:03;;;;;;;14.43;8.73;;;21.60;76.00;;;;;;5089398;28;20202;-92
2022/07/23 07:39:33;;;;;;;12.43;8.07;;;21.60;75.90;;;;;;5089234;28;20233;-91
2022/07/23 07:42:01;;;;;;;15.63;8.30;;;21.70;75.90;;;;;;5090799;28;20228;-92
2022/07/23 07:44:29;;;;;;;13.07;9.00;;;21.80;75.80;;;;;;5089144;28;20287;-92
2022/07/23 07:46:57;;;;;;;13.07;8.67;;;21.90;76.00;;;;;;5086982;28;20740;-92
2022/07/23 07:49:28;;;;;;;11.53;8.20;;;21.90;75.80;;;;;;5089643;28;20573;-93
2022/07/23 07:51:55;;;;;;;11.40;7.63;;;22.00;75.70;;;;;;5090901;28;20210;-93
2022/07/23 07:54:22;;;;;;;14.30;8.40;;;22.10;75.50;;;;;;5091150;28;20244;-93
2022/07/23 07:56:50;;;;;;;15.17;8.50;;;22.20;75.60;;;;;;5089393;28;20207;-93
2022/07/23 07:59:18;;;;;;;15.13;8.93;;;22.20;74.80;;;;;;5087365;28;20625;-93
2022/07/23 08:01:46;;;;;;;12.80;8.77;;;22.30;74.80;;;;;;5089776;28;20641;-92
2022/07/23 08:04:13;;;;;;;15.10;8.97;;;22.40;74.70;;;;;;5086615;28;20325;-91
2022/07/23 08:06:42;;;;;;;18.23;9.90;;;22.50;74.00;;;;;;5087122;28;20205;-92
2022/07/23 08:09:09;;;;;;;10.47;7.63;;;22.60;73.90;;;;;;5087547;28;20264;-92
2022/07/23 08:11:36;;;;;;;11.70;7.43;;;22.60;73.80;;;;;;5089228;28;20206;-92
2022/07/23 08:14:03;;;;;;;15.87;9.43;;;22.80;73.80;;;;;;5087776;28;20642;-93
2022/07/23 08:16:31;;;;;;;12.83;8.17;;;22.90;73.40;;;;;;5089437;28;20283;-94
2022/07/23 08:18:58;;;;;;;17.20;9.57;;;22.90;73.00;;;;;;5073980;28;20313;-93
2022/07/23 08:21:25;;;;;;;11.77;8.67;;;23.00;72.70;;;;;;5070364;28;20337;-92
2022/07/23 08:23:55;;;;;;;16.27;9.23;;;23.10;72.00;;;;;;5071172;28;20210;-91
2022/07/23 08:26:22;;;;;;;10.43;8.03;;;23.20;71.40;;;;;;5070637;28;20196;-93
2022/07/23 08:28:50;;;;;;;14.83;9.90;;;23.30;71.10;;;;;;5085705;28;20210;-94
2022/07/23 08:31:18;;;;;;;15.83;9.83;;;23.30;70.80;;;;;;5090744;28;20207;-92
2022/07/23 08:33:45;;;;;;;13.83;8.60;;;23.40;70.30;;;;;;5081906;28;20204;-93
2022/07/23 08:36:13;;;;;;;15.80;9.13;;;23.40;70.30;;;;;;5091142;28;20238;-92
2022/07/23 08:38:41;;;;;;;13.30;8.37;;;23.50;69.60;;;;;;5091583;28;20201;-93
2022/07/23 08:41:13;;;;;;;15.50;10.20;;;23.60;69.70;;;;;;5093781;28;20279;-94
2022/07/23 08:43:42;;;;;;;14.33;9.03;;;23.60;69.60;;;;;;5098486;28;20196;-93
2022/07/23 08:46:11;;;;;;;16.13;8.87;;;23.80;69.80;;;;;;5096229;28;20316;-93
2022/07/23 08:48:38;;;;;;;12.77;8.20;;;23.80;69.90;;;;;;5094531;28;20228;-93
2022/07/23 08:51:07;;;;;;;15.63;10.07;;;24.00;70.10;;;;;;5089969;28;20213;-92
2022/07/23 08:53:41;;;;;;;11.27;7.93;;;24.10;69.60;;;;;;5089028;28;20206;-93
2022/07/23 08:56:15;;;;;;;14.03;8.17;;;24.20;68.70;;;;;;5082975;28;20730;-92
2022/07/23 08:58:43;;;;;;;17.47;9.47;;;24.40;68.30;;;;;;5069941;28;20236;-92
2022/07/23 09:01:10;;;;;;;14.23;9.43;;;24.50;67.50;;;;;;5071727;28;20882;-93
2022/07/23 09:03:40;;;;;;;14.47;8.90;;;24.70;67.20;;;;;;5075836;28;20549;-93
2022/07/23 09:06:07;;;;;;;11.00;8.03;;;24.80;66.30;;;;;;5087841;28;20643;-92
2022/07/23 09:08:42;;;;;;;15.40;8.97;;;24.90;66.00;;;;;;5088883;28;20594;-93
2022/07/23 09:11:12;;;;;;;11.77;8.40;;;25.10;65.30;;;;;;5088537;28;20289;-92
2022/07/23 09:13:42;;;;;;;11.10;8.60;;;25.20;65.20;;;;;;5090221;28;20257;-94
2022/07/23 09:16:12;;;;;;;12.97;8.10;;;25.30;63.90;;;;;;5089213;28;20214;-93
2022/07/23 09:18:45;;;;;;;14.23;7.90;;;25.40;63.70;;;;;;5089490;28;20207;-94
2022/07/23 09:21:18;;;;;;;11.90;8.33;;;25.50;64.00;;;;;;5089002;28;20746;-95
2022/07/23 09:23:47;;;;;;;19.50;9.63;;;25.60;63.80;;;;;;5085392;28;20230;-92
2022/07/23 09:26:34;;;;;;;13.47;9.07;;;25.70;63.40;;;;;;5078865;28;20199;-92
2022/07/23 09:29:05;;;;;;;14.17;9.07;;;25.90;62.10;;;;;;5067982;28;20268;-92
2022/07/23 09:31:50;;;;;;;15.77;8.80;;;26.00;62.90;;;;;;5068341;28;20211;-92
2022/07/23 09:34:23;;;;;;;9.93;7.93;;;26.10;62.60;;;;;;5066532;28;20277;-92
2022/07/23 09:36:52;;;;;;;11.10;7.47;;;26.20;62.30;;;;;;5069246;28;20196;-93
2022/07/23 09:39:27;;;;;;;12.10;8.47;;;26.30;62.60;;;;;;5070195;28;20210;-94
2022/07/23 09:41:56;;;;;;;11.10;8.27;;;26.50;61.20;;;;;;5069868;28;20280;-93
2022/07/23 09:44:23;;;;;;;8.93;6.70;;;26.60;61.80;;;;;;5069390;28;20274;-92
2022/07/23 09:46:58;;;;;;;14.53;7.30;;;26.70;61.80;;;;;;5085446;28;20207;-92
2022/07/23 09:49:28;;;;;;;11.27;6.47;;;26.90;60.80;;;;;;5088944;28;20190;-93
2022/07/23 09:51:57;;;;;;;9.50;6.27;;;27.00;59.00;;;;;;5071050;28;20261;-91
2022/07/23 09:54:34;;;;;;;9.67;6.57;;;27.10;58.60;;;;;;5069000;28;20283;-91
2022/07/23 09:57:08;;;;;;;10.50;7.23;;;27.30;58.80;;;;;;5082882;28;20291;-92
2022/07/23 09:59:37;;;;;;;12.47;8.60;;;27.40;58.70;;;;;;5086968;28;20290;-94
2022/07/23 10:02:11;;;;;;;11.43;6.67;;;27.50;57.70;;;;;;5072993;28;20233;-93
2022/07/23 10:04:39;;;;;;;12.50;7.87;;;27.70;57.70;;;;;;5068938;28;20202;-94
2022/07/23 10:07:12;;;;;;;9.63;8.17;;;27.80;58.00;;;;;;5079948;28;20639;-93
2022/07/23 10:09:48;;;;;;;12.77;8.67;;;28.00;57.30;;;;;;5088475;28;20191;-92
2022/07/23 10:12:24;;;;;;;10.57;6.93;;;28.00;56.70;;;;;;5075624;28;20302;-93
2022/07/23 10:14:51;;;;;;;14.47;7.70;;;28.20;57.20;;;;;;5068536;28;20223;-93
2022/07/23 10:17:19;;;;;;;8.00;6.80;;;28.40;56.30;;;;;;5068414;28;20962;-95
2022/07/23 10:19:47;;;;;;;10.37;6.77;;;28.40;56.10;;;;;;5068311;28;20287;-92
2022/07/23 10:22:20;;;;;;;10.23;6.70;;;28.50;55.90;;;;;;5069711;28;20207;-93
2022/07/23 10:25:19;;;;;;;12.13;7.87;;;28.70;55.50;;;;;;5075469;28;20204;-93
2022/07/23 10:28:07;;;;;;;11.07;7.80;;;28.70;54.50;;;;;;5068203;28;20226;-94
2022/07/23 10:30:44;;;;;;;11.87;6.90;;;28.80;53.80;;;;;;5069280;28;20203;-93
2022/07/23 10:33:26;;;;;;;11.33;7.23;;;28.90;54.90;;;;;;5069320;28;20293;-94
2022/07/23 10:36:02;;;;;;;12.73;7.83;;;29.00;54.30;;;;;;5068006;28;20265;-94
2022/07/23 10:38:34;;;;;;;11.97;7.70;;;29.10;54.10;;;;;;5068115;28;20217;-94
2022/07/23 10:41:03;;;;;;;12.03;8.33;;;29.20;53.80;;;;;;5067050;28;20582;-94
2022/07/23 10:43:32;;;;;;;9.97;7.60;;;29.20;53.80;;;;;;5068083;28;20214;-93
2022/07/23 10:46:26;;;;;;;11.00;7.80;;;29.30;54.10;;;;;;5084709;28;20347;-94
2022/07/23 10:49:22;;;;;;;7.67;6.13;;;29.40;52.90;;;;;;5070335;28;20644;-94
2022/07/23 10:52:20;;;;;;;12.70;9.37;;;29.50;52.30;;;;;;5060833;28;20219;-93
2022/07/23 10:54:50;;;;;;;13.43;8.53;;;29.60;52.60;;;;;;5075721;28;20234;-95
2022/07/23 10:57:18;;;;;;;9.87;7.40;;;29.70;53.60;;;;;;5068765;28;20207;-93
2022/07/23 11:00:22;;;;;;;14.97;9.57;;;29.80;53.70;;;;;;5072862;28;20260;-93
2022/07/23 11:03:27;;;;;;;11.47;8.63;;;29.90;51.90;;;;;;5071506;28;20207;-92
2022/07/23 11:05:55;;;;;;;14.83;8.43;;;29.90;51.10;;;;;;5078790;28;20206;-93
2022/07/23 11:08:22;;;;;;;11.07;8.13;;;30.00;52.40;;;;;;5088082;28;20805;-93
2022/07/23 11:11:12;;;;;;;11.83;8.47;;;30.10;52.40;;;;;;5080625;28;20265;-94
2022/07/23 11:13:47;;;;;;;13.27;8.07;;;30.10;51.90;;;;;;5067393;28;20230;-94
2022/07/23 11:16:26;;;;;;;12.77;8.50;;;30.20;52.50;;;;;;5074786;28;20275;-92
2022/07/23 11:19:12;;;;;;;13.20;8.60;;;30.30;51.70;;;;;;5090717;28;20202;-94
2022/07/23 11:21:52;;;;;;;8.53;6.73;;;30.40;51.40;;;;;;5094407;28;20220;-93
2022/07/23 11:24:25;;;;;;;10.87;7.57;;;30.50;51.50;;;;;;5099948;28;20202;-93
2022/07/23 11:27:03;;;;;;;10.40;6.87;;;30.50;50.50;;;;;;5073101;28;20207;-92
2022/07/23 11:29:48;;;;;;;9.33;6.90;;;30.60;50.70;;;;;;5071825;28;20203;-93
2022/07/23 11:32:42;;;;;;;9.60;6.80;;;30.60;50.30;;;;;;5069985;28;20348;-93
2022/07/23 11:35:30;;;;;;;8.43;6.80;;;30.60;51.10;;;;;;5070013;28;20809;-92
2022/07/23 11:38:08;;;;;;;10.30;7.60;;;30.70;50.30;;;;;;5072720;28;20571;-92
2022/07/23 11:40:47;;;;;;;13.00;8.17;;;30.70;50.70;;;;;;5073615;28;20699;-93
2022/07/23 11:43:37;;;;;;;15.90;8.87;;;30.80;51.00;;;;;;5089199;28;20667;-95
2022/07/23 11:46:04;;;;;;;11.60;7.57;;;30.80;50.60;;;;;;5071327;28;20217;-93
2022/07/23 11:48:32;;;;;;;10.83;7.63;;;30.90;51.00;;;;;;5070667;28;20349;-92
2022/07/23 11:51:00;;;;;;;14.10;8.07;;;31.00;50.30;;;;;;5070403;28;20245;-92
2022/07/23 11:53:30;;;;;;;11.77;7.07;;;31.10;49.50;;;;;;5070484;28;20657;-94
2022/07/23 11:56:04;;;;;;;12.83;8.60;;;31.10;49.90;;;;;;5069547;28;20207;-94
2022/07/23 11:58:31;;;;;;;11.73;7.63;;;31.20;49.00;;;;;;5069471;28;20350;-93
2022/07/23 12:01:02;;;;;;;10.90;7.67;;;31.30;49.40;;;;;;5087464;28;20227;-94
2022/07/23 12:03:29;;;;;;;10.63;7.53;;;31.40;49.00;;;;;;5090207;28;20290;-93
2022/07/23 12:06:02;;;;;;;9.98;7.57;;;31.50;49.40;;;;;;5090454;28;20268;-93
2022/07/23 12:08:29;;;;;;;13.25;8.25;;;31.50;47.90;;;;;;5086923;28;20215;-95
2022/07/23 12:10:56;;;;;;;16.93;8.73;;;31.60;48.80;;;;;;5072591;28;20702;-94
2022/07/23 12:13:26;;;;;;;11.50;7.43;;;31.70;48.70;;;;;;5069737;28;20277;-94
2022/07/23 12:16:08;;;;;;;12.83;7.97;;;31.80;48.70;;;;;;5069408;28;20288;-93
2022/07/23 12:18:48;;;;;;;11.32;8.10;;;31.80;48.00;;;;;;5083991;28;20205;-93
2022/07/23 12:21:17;;;;;;;10.65;7.25;;;31.90;48.50;;;;;;5071460;28;20227;-93
2022/07/23 12:23:50;;;;;;;10.50;7.47;;;32.00;48.20;;;;;;5077195;28;20203;-94
2022/07/23 12:26:17;;;;;;;9.57;7.28;;;32.10;47.40;;;;;;5087587;28;20209;-92
2022/07/23 12:28:53;;;;;;;10.07;7.18;;;32.10;48.00;;;;;;5073115;28;20674;-92
2022/07/23 12:31:27;;;;;;;8.13;6.32;;;32.20;46.30;;;;;;5069779;28;20211;-94
2022/07/23 12:33:54;;;;;;;13.98;7.80;;;32.30;46.50;;;;;;5085303;28;20255;-92
2022/07/23 12:36:39;;;;;;;8.85;6.45;;;32.20;46.50;;;;;;5082961;28;20544;-93
2022/07/23 12:39:07;;;;;;;12.83;6.47;;;32.20;46.30;;;;;;5078643;28;20198;-94
2022/07/23 12:41:53;;;;;;;10.13;7.10;;;32.10;47.30;;;;;;5091068;28;20317;-93
2022/07/23 12:44:25;;;;;;;14.48;8.02;;;32.10;46.60;;;;;;5068445;28;20259;-93
2022/07/23 12:46:53;;;;;;;10.25;7.50;;;32.10;47.40;;;;;;5068925;28;20247;-92
2022/07/23 12:49:27;;;;;;;10.82;7.55;;;32.10;47.10;;;;;;5068176;28;20728;-92
2022/07/23 12:51:55;;;;;;;9.70;7.23;;;32.10;46.20;;;;;;5069325;28;20203;-92
2022/07/23 12:54:28;;;;;;;10.30;7.20;;;32.10;46.60;;;;;;5069100;28;20281;-91
2022/07/23 12:56:55;;;;;;;12.20;7.82;;;32.10;45.80;;;;;;5068278;28;20608;-92